createdAt,value
2023-04-02T00:00:22.131Z,99.90
2023-04-02T00:03:01.230Z,99.90
2023-04-02T00:05:52.468Z,99.90
2023-04-02T00:08:28.732Z,99.90
2023-04-02T00:11:00.736Z,99.90
2023-04-02T00:13:37.368Z,99.90
2023-04-02T00:16:10.017Z,99.90
2023-04-02T00:18:45.391Z,99.90
2023-04-02T00:21:22.458Z,99.90
2023-04-02T00:23:57.431Z,99.90
2023-04-02T00:26:32.683Z,99.90
2023-04-02T00:29:03.649Z,99.90
2023-04-02T00:31:35.092Z,99.90
2023-04-02T00:34:07.045Z,99.90
2023-04-02T00:36:37.844Z,99.90
2023-04-02T00:39:17.993Z,99.90
2023-04-02T00:41:48.877Z,99.90
2023-04-02T00:44:22.909Z,99.90
2023-04-02T00:46:54.039Z,99.90
2023-04-02T00:49:32.160Z,99.90
2023-04-02T00:52:05.401Z,99.90
2023-04-02T00:54:43.770Z,99.90
2023-04-02T00:57:20.903Z,99.90
2023-04-02T01:00:00.711Z,99.90
2023-04-02T01:02:33.330Z,99.90
2023-04-02T01:05:06.387Z,99.90
2023-04-02T01:07:53.476Z,99.90
2023-04-02T01:10:48.377Z,99.90
2023-04-02T01:13:27.941Z,99.90
2023-04-02T01:16:04.954Z,99.90
2023-04-02T01:18:50.960Z,99.90
2023-04-02T01:21:43.017Z,99.90
2023-04-02T01:24:15.486Z,99.90
2023-04-02T01:26:58.764Z,99.90
2023-04-02T01:29:32.539Z,99.90
2023-04-02T01:32:06.311Z,99.90
2023-04-02T01:34:37.286Z,99.90
2023-04-02T01:37:15.759Z,99.90
2023-04-02T01:40:00.753Z,99.90
2023-04-02T01:42:38.984Z,99.90
2023-04-02T01:45:14.200Z,99.90
2023-04-02T01:47:45.713Z,99.90
2023-04-02T01:50:26.809Z,99.90
2023-04-02T01:52:59.476Z,99.90
2023-04-02T01:55:36.119Z,99.90
2023-04-02T01:58:06.911Z,99.90
2023-04-02T02:00:49.287Z,99.90
2023-04-02T02:03:21.167Z,99.90
2023-04-02T02:05:51.912Z,99.90
2023-04-02T02:08:43.665Z,99.90
2023-04-02T02:11:19.141Z,99.90
2023-04-02T02:13:50.451Z,99.90
2023-04-02T02:16:23.378Z,99.90
2023-04-02T02:18:57.722Z,99.90
2023-04-02T02:21:39.301Z,99.90
2023-04-02T02:24:17.405Z,99.90
2023-04-02T02:26:51.136Z,99.90
2023-04-02T02:29:24.000Z,99.90
2023-04-02T02:31:58.559Z,99.90
2023-04-02T02:34:35.376Z,99.90
2023-04-02T02:37:09.430Z,99.90
2023-04-02T02:39:43.555Z,99.90
2023-04-02T02:42:18.397Z,99.90
2023-04-02T02:44:51.497Z,99.90
2023-04-02T02:47:27.737Z,99.90
2023-04-02T02:50:00.674Z,99.90
2023-04-02T02:52:33.119Z,99.90
2023-04-02T02:55:05.782Z,99.90
2023-04-02T02:57:39.955Z,99.90
2023-04-02T03:00:13.728Z,99.90
2023-04-02T03:02:46.519Z,99.90
2023-04-02T03:05:21.427Z,99.90
2023-04-02T03:07:53.998Z,99.90
2023-04-02T03:10:32.222Z,99.90
2023-04-02T03:13:08.291Z,99.90
2023-04-02T03:15:44.511Z,99.90
2023-04-02T03:18:22.647Z,99.90
2023-04-02T03:20:55.969Z,99.90
2023-04-02T03:23:32.340Z,99.90
2023-04-02T03:26:07.165Z,99.90
2023-04-02T03:28:43.005Z,99.90
2023-04-02T03:31:19.008Z,99.90
2023-04-02T03:33:55.417Z,99.90
2023-04-02T03:36:31.070Z,99.90
2023-04-02T03:39:12.059Z,99.90
2023-04-02T03:41:47.214Z,99.90
2023-04-02T03:44:25.263Z,99.90
2023-04-02T03:46:59.840Z,99.90
2023-04-02T03:49:37.376Z,99.90
2023-04-02T03:52:12.504Z,99.90
2023-04-02T03:54:53.314Z,99.90
2023-04-02T03:57:31.846Z,99.90
2023-04-02T04:00:06.127Z,99.90
2023-04-02T04:02:47.827Z,99.90
2023-04-02T04:05:27.856Z,99.90
2023-04-02T04:08:03.059Z,99.90
2023-04-02T04:10:34.451Z,99.90
2023-04-02T04:13:08.827Z,99.90
2023-04-02T04:15:43.804Z,99.90
2023-04-02T04:18:24.984Z,99.90
2023-04-02T04:21:00.876Z,99.90
2023-04-02T04:23:34.032Z,99.90
2023-04-02T04:26:10.354Z,99.90
2023-04-02T04:28:45.784Z,99.90
2023-04-02T04:31:26.229Z,99.90
2023-04-02T04:34:05.790Z,99.90
2023-04-02T04:36:48.901Z,99.90
2023-04-02T04:39:25.940Z,99.90
2023-04-02T04:41:59.629Z,99.90
2023-04-02T04:44:41.929Z,99.90
2023-04-02T04:47:17.843Z,99.90
2023-04-02T04:49:54.196Z,99.90
2023-04-02T04:52:30.374Z,99.90
2023-04-02T04:55:01.043Z,99.90
2023-04-02T04:57:35.036Z,99.90
2023-04-02T05:00:14.909Z,99.90
2023-04-02T05:02:49.359Z,99.90
2023-04-02T05:05:21.743Z,99.90
2023-04-02T05:07:59.836Z,99.90
2023-04-02T05:10:38.820Z,99.90
2023-04-02T05:13:17.175Z,99.90
2023-04-02T05:15:52.808Z,99.90
2023-04-02T05:18:30.297Z,99.90
2023-04-02T05:21:05.194Z,99.90
2023-04-02T05:23:45.795Z,99.90
2023-04-02T05:26:21.388Z,99.90
2023-04-02T05:28:58.918Z,99.90
2023-04-02T05:31:34.971Z,99.90
2023-04-02T05:34:05.631Z,99.90
2023-04-02T05:36:36.606Z,99.90
2023-04-02T05:39:11.814Z,99.90
2023-04-02T05:41:45.665Z,99.90
2023-04-02T05:44:25.056Z,99.90
2023-04-02T05:46:58.982Z,99.90
2023-04-02T05:49:34.279Z,99.90
2023-04-02T05:52:07.582Z,99.90
2023-04-02T05:54:44.618Z,99.90
2023-04-02T05:57:23.194Z,99.90
2023-04-02T06:00:02.483Z,99.90
2023-04-02T06:02:36.921Z,99.90
2023-04-02T06:05:10.320Z,99.90
2023-04-02T06:07:48.771Z,99.90
2023-04-02T06:10:26.090Z,99.90
2023-04-02T06:13:01.045Z,99.90
2023-04-02T06:15:32.924Z,99.90
2023-04-02T06:18:08.204Z,99.90
2023-04-02T06:20:38.696Z,99.90
2023-04-02T06:23:14.767Z,99.90
2023-04-02T06:25:50.644Z,99.90
2023-04-02T06:28:26.895Z,99.90
2023-04-02T06:31:03.595Z,99.90
2023-04-02T06:33:33.823Z,99.90
2023-04-02T06:36:06.357Z,99.90
2023-04-02T06:38:38.471Z,99.90
2023-04-02T06:41:17.706Z,99.90
2023-04-02T06:43:51.446Z,99.90
2023-04-02T06:46:27.662Z,99.90
2023-04-02T06:49:04.690Z,99.90
2023-04-02T06:51:38.324Z,99.90
2023-04-02T06:54:11.469Z,99.90
2023-04-02T06:56:46.070Z,99.90
2023-04-02T06:59:17.569Z,99.90
2023-04-02T07:01:52.574Z,99.90
2023-04-02T07:04:23.917Z,99.90
2023-04-02T07:06:54.095Z,99.90
2023-04-02T07:09:25.235Z,99.90
2023-04-02T07:11:57.282Z,99.90
2023-04-02T07:14:27.552Z,99.90
2023-04-02T07:16:57.823Z,99.90
2023-04-02T07:19:28.491Z,99.90
2023-04-02T07:21:58.687Z,99.90
2023-04-02T07:24:28.903Z,99.90
2023-04-02T07:27:01.000Z,99.90
2023-04-02T07:29:31.280Z,99.90
2023-04-02T07:32:01.453Z,99.90
2023-04-02T07:34:32.495Z,99.90
2023-04-02T07:37:03.208Z,99.90
2023-04-02T07:39:35.546Z,99.90
2023-04-02T07:42:08.598Z,99.90
2023-04-02T07:44:39.092Z,99.90
2023-04-02T07:47:11.170Z,99.90
2023-04-02T07:49:41.611Z,99.90
2023-04-02T07:52:12.470Z,99.90
2023-04-02T07:54:42.676Z,99.90
2023-04-02T07:57:14.996Z,99.90
2023-04-02T07:59:45.294Z,99.90
2023-04-02T08:02:23.348Z,99.90
2023-04-02T08:04:54.047Z,99.90
2023-04-02T08:07:24.188Z,99.90
2023-04-02T08:09:54.665Z,99.90
2023-04-02T08:12:26.640Z,99.90
2023-04-02T08:14:56.865Z,99.90
2023-04-02T08:17:27.507Z,99.90
2023-04-02T08:20:01.637Z,99.90
2023-04-02T08:22:32.991Z,99.90
2023-04-02T08:25:03.195Z,99.90
2023-04-02T08:27:34.942Z,99.90
2023-04-02T08:30:05.295Z,99.90
2023-04-02T08:32:35.542Z,99.90
2023-04-02T08:35:06.102Z,99.90
2023-04-02T08:37:36.417Z,99.90
2023-04-02T08:40:07.946Z,99.90
2023-04-02T08:42:43.733Z,99.90
2023-04-02T08:45:25.371Z,99.90
2023-04-02T08:47:59.851Z,99.90
2023-04-02T08:50:35.537Z,99.90
2023-04-02T08:53:09.021Z,99.90
2023-04-02T08:55:44.710Z,99.90
2023-04-02T08:58:29.748Z,99.90
2023-04-02T09:01:02.981Z,99.90
2023-04-02T09:03:37.889Z,99.90
2023-04-02T09:06:14.776Z,99.90
2023-04-02T09:08:48.812Z,99.90
2023-04-02T09:11:26.595Z,99.90
2023-04-02T09:14:02.414Z,99.90
2023-04-02T09:16:44.168Z,99.90
2023-04-02T09:19:23.972Z,99.90
2023-04-02T09:22:08.242Z,99.90
2023-04-02T09:24:39.742Z,99.90
2023-04-02T09:27:21.613Z,99.90
2023-04-02T09:29:56.058Z,99.90
2023-04-02T09:32:39.792Z,98.90
2023-04-02T09:35:24.622Z,99.00
2023-04-02T09:38:21.928Z,98.90
2023-04-02T09:40:53.647Z,97.50
2023-04-02T09:43:25.534Z,97.60
2023-04-02T09:46:03.409Z,97.90
2023-04-02T09:48:36.390Z,97.50
2023-04-02T09:51:17.776Z,98.00
2023-04-02T09:53:49.814Z,98.70
2023-04-02T09:56:23.703Z,99.00
2023-04-02T09:59:06.386Z,99.20
2023-04-02T10:01:40.925Z,99.80
2023-04-02T10:04:39.856Z,99.90
2023-04-02T10:07:10.222Z,99.90
2023-04-02T10:09:41.278Z,99.90
2023-04-02T10:12:16.451Z,99.10
2023-04-02T10:14:50.772Z,99.80
2023-04-02T10:17:25.578Z,99.40
2023-04-02T10:19:58.483Z,98.30
2023-04-02T10:22:31.535Z,99.20
2023-04-02T10:25:01.992Z,99.50
2023-04-02T10:27:38.249Z,99.90
2023-04-02T10:30:26.605Z,99.90
2023-04-02T10:33:03.211Z,99.90
2023-04-02T10:35:50.349Z,99.90
2023-04-02T10:38:33.266Z,99.90
2023-04-02T10:41:10.263Z,99.90
2023-04-02T10:44:12.537Z,99.90
2023-04-02T10:47:03.961Z,99.90
2023-04-02T10:49:44.202Z,98.70
2023-04-02T10:52:20.745Z,98.90
2023-04-02T10:54:53.229Z,99.20
2023-04-02T10:57:35.635Z,98.90
2023-04-02T11:00:19.319Z,98.50
2023-04-02T11:02:55.638Z,98.30
2023-04-02T11:05:37.728Z,96.90
2023-04-02T11:08:14.270Z,97.30
2023-04-02T11:10:49.201Z,97.60
2023-04-02T11:13:26.281Z,96.40
2023-04-02T11:15:56.641Z,97.20
2023-04-02T11:18:30.125Z,97.30
2023-04-02T11:21:04.732Z,97.00
2023-04-02T11:23:42.353Z,98.10
2023-04-02T11:26:32.263Z,97.90
2023-04-02T11:29:19.082Z,98.20
2023-04-02T11:31:50.172Z,97.60
2023-04-02T11:35:06.747Z,96.90
2023-04-02T11:37:44.500Z,97.00
2023-04-02T11:40:59.554Z,96.60
2023-04-02T11:43:54.622Z,94.80
2023-04-02T11:46:48.315Z,93.60
2023-04-02T11:49:39.220Z,94.30
2023-04-02T11:52:24.815Z,94.10
2023-04-02T11:55:24.909Z,94.70
2023-04-02T11:58:32.839Z,94.30
2023-04-02T12:01:25.154Z,95.00
2023-04-02T12:04:19.163Z,94.20
2023-04-02T12:07:00.558Z,94.00
2023-04-02T12:09:32.492Z,93.60
2023-04-02T12:12:20.603Z,94.10
2023-04-02T12:14:51.639Z,92.90
2023-04-02T12:17:30.371Z,93.40
2023-04-02T12:20:08.483Z,93.00
2023-04-02T12:22:41.210Z,93.00
2023-04-02T12:25:29.992Z,93.20
2023-04-02T12:28:20.660Z,93.70
2023-04-02T12:30:53.278Z,93.30
2023-04-02T12:33:34.456Z,93.30
2023-04-02T12:36:06.214Z,91.90
2023-04-02T12:38:38.915Z,92.60
2023-04-02T12:41:22.213Z,91.60
2023-04-02T12:44:00.388Z,91.70
2023-04-02T12:46:32.364Z,92.20
2023-04-02T12:49:07.829Z,91.50
2023-04-02T12:51:39.640Z,90.50
2023-04-02T12:54:13.765Z,90.90
2023-04-02T12:56:44.131Z,91.10
2023-04-02T12:59:32.257Z,92.00
2023-04-02T13:02:04.150Z,91.50
2023-04-02T13:04:34.296Z,91.70
2023-04-02T13:07:04.515Z,90.40
2023-04-02T13:09:38.164Z,90.60
2023-04-02T13:12:09.151Z,90.30
2023-04-02T13:14:41.352Z,91.20
2023-04-02T13:17:42.643Z,90.30
2023-04-02T13:20:32.192Z,91.50
2023-04-02T13:23:04.136Z,92.60
2023-04-02T13:25:37.670Z,91.50
2023-04-02T13:28:07.897Z,91.60
2023-04-02T13:30:39.741Z,90.60
2023-04-02T13:33:09.977Z,90.50
2023-04-02T13:35:40.214Z,91.10
2023-04-02T13:38:10.898Z,91.70
2023-04-02T13:40:41.901Z,91.40
2023-04-02T13:43:20.422Z,91.60
2023-04-02T13:45:54.466Z,91.80
2023-04-02T13:48:26.900Z,91.30
2023-04-02T13:50:57.293Z,91.60
2023-04-02T13:53:33.655Z,91.80
2023-04-02T13:56:04.385Z,91.10
2023-04-02T13:58:34.903Z,90.10
2023-04-02T14:01:07.108Z,90.20
2023-04-02T14:03:37.404Z,90.00
2023-04-02T14:06:15.974Z,89.90
2023-04-02T14:08:56.513Z,91.30
2023-04-02T14:11:38.648Z,90.00
2023-04-02T14:14:47.459Z,90.80
2023-04-02T14:17:27.182Z,90.20
2023-04-02T14:20:19.162Z,87.70
2023-04-02T14:23:00.456Z,87.90
2023-04-02T14:25:35.788Z,90.20
2023-04-02T14:28:12.198Z,89.90
2023-04-02T14:30:51.541Z,86.60
2023-04-02T14:33:36.400Z,87.40
2023-04-02T14:36:14.966Z,87.80
2023-04-02T14:38:53.050Z,85.00
2023-04-02T14:41:29.578Z,87.30
2023-04-02T14:44:04.210Z,84.50
2023-04-02T14:46:37.399Z,86.00
2023-04-02T14:49:23.308Z,87.00
2023-04-02T14:51:59.903Z,85.70
2023-04-02T14:54:38.324Z,85.60
2023-04-02T14:57:17.565Z,83.90
2023-04-02T15:00:00.953Z,90.10
2023-04-02T15:02:43.614Z,87.40
2023-04-02T15:05:22.803Z,80.00
2023-04-02T15:07:58.105Z,80.20
2023-04-02T15:10:32.929Z,82.90
2023-04-02T15:13:09.208Z,85.30
2023-04-02T15:15:48.179Z,86.40
2023-04-02T15:18:19.837Z,87.40
2023-04-02T15:21:02.467Z,85.50
2023-04-02T15:23:48.480Z,87.20
2023-04-02T15:26:26.992Z,85.90
2023-04-02T15:29:07.555Z,83.30
2023-04-02T15:31:42.497Z,84.70
2023-04-02T15:34:25.015Z,82.50
2023-04-02T15:37:09.732Z,80.00
2023-04-02T15:39:49.372Z,85.90
2023-04-02T15:42:26.591Z,85.50
2023-04-02T15:45:22.787Z,82.60
2023-04-02T15:48:19.722Z,81.00
2023-04-02T15:51:00.784Z,81.20
2023-04-02T15:53:41.593Z,82.60
2023-04-02T15:56:19.360Z,83.60
2023-04-02T15:59:00.839Z,83.80
2023-04-02T16:01:38.664Z,80.70
2023-04-02T16:04:41.281Z,79.90
2023-04-02T16:07:41.598Z,82.70
2023-04-02T16:10:38.039Z,78.90
2023-04-02T16:13:20.289Z,79.30
2023-04-02T16:15:55.930Z,80.20
2023-04-02T16:18:40.689Z,79.70
2023-04-02T16:21:12.753Z,81.30
2023-04-02T16:23:43.524Z,80.30
2023-04-02T16:26:43.321Z,76.10
2023-04-02T16:29:51.524Z,74.90
2023-04-02T16:32:41.717Z,77.40
2023-04-02T16:35:41.807Z,76.30
2023-04-02T16:38:26.492Z,73.20
2023-04-02T16:41:08.741Z,74.80
2023-04-02T16:43:51.838Z,74.90
2023-04-02T16:46:39.309Z,75.80
2023-04-02T16:49:23.493Z,73.50
2023-04-02T16:52:05.962Z,71.70
2023-04-02T16:54:44.554Z,66.00
2023-04-02T16:57:26.483Z,67.90
2023-04-02T17:00:09.147Z,70.80
2023-04-02T17:02:48.363Z,68.70
2023-04-02T17:05:31.523Z,68.00
2023-04-02T17:08:12.809Z,64.00
2023-04-02T17:10:52.253Z,63.80
2023-04-02T17:13:30.356Z,62.70
2023-04-02T17:16:14.879Z,62.20
2023-04-02T17:18:48.625Z,63.00
2023-04-02T17:21:23.561Z,59.10
2023-04-02T17:23:58.285Z,59.50
2023-04-02T17:26:31.378Z,58.60
2023-04-02T17:29:06.720Z,59.30
2023-04-02T17:31:41.565Z,59.20
2023-04-02T17:34:16.050Z,60.80
2023-04-02T17:36:55.774Z,65.10
2023-04-02T17:39:34.296Z,65.30
2023-04-02T17:42:12.243Z,68.40
2023-04-02T17:45:03.505Z,66.40
2023-04-02T17:47:41.843Z,65.60
2023-04-02T17:50:42.821Z,65.00
2023-04-02T17:53:24.874Z,64.90
2023-04-02T17:56:07.369Z,67.60
2023-04-02T17:59:01.120Z,67.70
2023-04-02T18:01:36.888Z,65.10
2023-04-02T18:04:20.812Z,67.30
2023-04-02T18:06:59.898Z,65.50
2023-04-02T18:09:40.525Z,69.30
2023-04-02T18:12:22.467Z,65.10
2023-04-02T18:15:14.116Z,65.60
2023-04-02T18:17:51.224Z,67.80
2023-04-02T18:20:33.606Z,68.10
2023-04-02T18:23:11.690Z,69.00
2023-04-02T18:25:53.670Z,69.00
2023-04-02T18:28:46.726Z,68.60
2023-04-02T18:31:26.652Z,67.80
2023-04-02T18:34:13.913Z,68.10
2023-04-02T18:36:56.147Z,68.50
2023-04-02T18:39:34.326Z,68.80
2023-04-02T18:42:11.256Z,73.70
2023-04-02T18:44:56.749Z,69.70
2023-04-02T18:47:32.790Z,69.30
2023-04-02T18:50:16.464Z,68.00
2023-04-02T18:52:49.733Z,72.10
2023-04-02T18:55:23.385Z,68.90
2023-04-02T18:57:59.570Z,68.30
2023-04-02T19:00:33.028Z,67.30
2023-04-02T19:03:12.050Z,68.10
2023-04-02T19:05:46.835Z,68.20
2023-04-02T19:08:22.938Z,69.40
2023-04-02T19:10:56.388Z,68.60
2023-04-02T19:13:26.689Z,68.90
2023-04-02T19:16:21.240Z,68.30
2023-04-02T19:19:00.671Z,71.30
2023-04-02T19:21:41.632Z,68.20
2023-04-02T19:24:33.825Z,69.00
2023-04-02T19:27:09.995Z,69.80
2023-04-02T19:29:52.336Z,70.10
2023-04-02T19:32:33.372Z,70.60
2023-04-02T19:35:13.411Z,68.10
2023-04-02T19:37:51.610Z,66.40
2023-04-02T19:40:37.112Z,67.00
2023-04-02T19:43:09.251Z,66.60
2023-04-02T19:45:41.635Z,68.40
2023-04-02T19:48:17.369Z,69.30
2023-04-02T19:50:49.029Z,67.40
2023-04-02T19:53:19.724Z,69.30
2023-04-02T19:55:51.603Z,69.50
2023-04-02T19:58:29.493Z,69.60
2023-04-02T20:01:00.004Z,69.50
2023-04-02T20:03:31.123Z,69.10
2023-04-02T20:06:01.442Z,71.10
2023-04-02T20:08:32.054Z,69.50
2023-04-02T20:11:04.481Z,70.90
2023-04-02T20:13:34.798Z,71.10
2023-04-02T20:16:06.511Z,70.10
2023-04-02T20:18:37.778Z,72.90
2023-04-02T20:21:08.970Z,69.20
2023-04-02T20:23:40.278Z,70.90
2023-04-02T20:26:13.285Z,68.00
2023-04-02T20:28:43.549Z,67.60
2023-04-02T20:31:16.361Z,67.10
2023-04-02T20:33:46.855Z,67.70
2023-04-02T20:36:19.868Z,68.30
2023-04-02T20:38:51.668Z,69.00
2023-04-02T20:41:24.147Z,68.90
2023-04-02T20:43:54.526Z,69.30
2023-04-02T20:46:24.792Z,71.90
2023-04-02T20:48:55.273Z,72.50
2023-04-02T20:51:25.681Z,72.50
2023-04-02T20:53:56.075Z,73.70
2023-04-02T20:56:28.479Z,74.10
2023-04-02T20:58:58.684Z,75.20
2023-04-02T21:01:30.533Z,74.80
2023-04-02T21:04:03.189Z,73.80
2023-04-02T21:06:35.656Z,72.50
2023-04-02T21:09:08.652Z,74.40
2023-04-02T21:11:41.098Z,77.40
2023-04-02T21:14:11.412Z,76.10
2023-04-02T21:16:43.322Z,74.80
2023-04-02T21:19:14.871Z,75.30
2023-04-02T21:21:45.902Z,75.10
2023-04-02T21:24:16.110Z,75.50
2023-04-02T21:26:48.074Z,75.80
2023-04-02T21:29:18.347Z,73.00
2023-04-02T21:31:48.645Z,76.10
2023-04-02T21:34:19.824Z,74.90
2023-04-02T21:36:51.229Z,75.80
2023-04-02T21:39:22.665Z,74.60
2023-04-02T21:41:55.615Z,73.80
2023-04-02T21:44:26.415Z,74.30
2023-04-02T21:46:56.809Z,73.40
2023-04-02T21:49:27.901Z,73.10
2023-04-02T21:51:58.247Z,74.00
2023-04-02T21:54:28.814Z,77.00
2023-04-02T21:57:00.774Z,77.20
2023-04-02T21:59:31.070Z,79.30
2023-04-02T22:02:01.303Z,78.80
2023-04-02T22:04:33.988Z,75.30
2023-04-02T22:07:04.415Z,76.70
2023-04-02T22:09:34.602Z,78.80
2023-04-02T22:12:08.549Z,78.00
2023-04-02T22:14:38.765Z,80.00
2023-04-02T22:17:08.974Z,79.50
2023-04-02T22:19:39.201Z,80.60
2023-04-02T22:22:09.556Z,79.80
2023-04-02T22:24:39.752Z,80.40
2023-04-02T22:27:11.709Z,81.60
2023-04-02T22:29:41.924Z,80.30
2023-04-02T22:32:13.463Z,82.20
2023-04-02T22:34:46.208Z,84.10
2023-04-02T22:37:16.700Z,85.20
2023-04-02T22:39:46.899Z,85.40
2023-04-02T22:42:18.918Z,86.20
2023-04-02T22:44:49.089Z,86.90
2023-04-02T22:47:19.337Z,88.70
2023-04-02T22:49:49.477Z,89.70
2023-04-02T22:52:19.952Z,90.00
2023-04-02T22:54:50.493Z,89.30
2023-04-02T22:57:22.529Z,90.70
2023-04-02T22:59:52.757Z,91.10
2023-04-02T23:02:23.001Z,91.10
2023-04-02T23:04:53.324Z,91.40
2023-04-02T23:07:23.784Z,92.00
2023-04-02T23:09:53.978Z,93.10
2023-04-02T23:12:25.742Z,94.40
2023-04-02T23:14:57.763Z,96.20
2023-04-02T23:17:27.953Z,97.00
2023-04-02T23:19:58.182Z,97.70
2023-04-02T23:22:28.367Z,98.80
2023-04-02T23:24:58.708Z,99.30
2023-04-02T23:27:30.663Z,99.90
2023-04-02T23:30:01.260Z,99.90
2023-04-02T23:32:33.287Z,99.90
2023-04-02T23:35:03.886Z,99.90
2023-04-02T23:37:34.766Z,99.90
2023-04-02T23:40:05.384Z,99.90
2023-04-02T23:42:37.677Z,99.90
2023-04-02T23:45:09.154Z,99.90
2023-04-02T23:47:39.346Z,99.90
2023-04-02T23:50:10.420Z,99.90
2023-04-02T23:52:40.760Z,99.90
2023-04-02T23:55:12.884Z,99.90
2023-04-02T23:57:45.491Z,99.90
